sensor_id;sensor_type;location;lat;lon;timestamp;temperature;humidity
67804;SHT31;54603;45.638;11.714;2023-05-31T00:00:49;24.87;53.95
67804;SHT31;54603;45.638;11.714;2023-05-31T00:03:15;24.87;53.77
67804;SHT31;54603;45.638;11.714;2023-05-31T00:05:41;24.87;53.66
67804;SHT31;54603;45.638;11.714;2023-05-31T00:08:07;24.85;53.56
67804;SHT31;54603;45.638;11.714;2023-05-31T00:10:33;24.86;53.56
67804;SHT31;54603;45.638;11.714;2023-05-31T00:12:59;24.85;53.62
67804;SHT31;54603;45.638;11.714;2023-05-31T00:15:26;24.84;53.61
67804;SHT31;54603;45.638;11.714;2023-05-31T00:17:52;24.84;53.59
67804;SHT31;54603;45.638;11.714;2023-05-31T00:20:17;24.84;53.52
67804;SHT31;54603;45.638;11.714;2023-05-31T00:22:44;24.82;53.49
67804;SHT31;54603;45.638;11.714;2023-05-31T00:25:10;24.83;53.31
67804;SHT31;54603;45.638;11.714;2023-05-31T00:27:36;24.82;53.18
67804;SHT31;54603;45.638;11.714;2023-05-31T00:30:02;24.81;53.12
67804;SHT31;54603;45.638;11.714;2023-05-31T00:32:28;24.80;53.05
67804;SHT31;54603;45.638;11.714;2023-05-31T00:34:55;24.80;53.04
67804;SHT31;54603;45.638;11.714;2023-05-31T00:37:21;24.78;53.03
67804;SHT31;54603;45.638;11.714;2023-05-31T00:39:50;24.79;53.02
67804;SHT31;54603;45.638;11.714;2023-05-31T00:42:16;24.77;53.00
67804;SHT31;54603;45.638;11.714;2023-05-31T00:44:42;24.76;53.01
67804;SHT31;54603;45.638;11.714;2023-05-31T00:47:08;24.76;52.92
67804;SHT31;54603;45.638;11.714;2023-05-31T00:49:35;24.76;52.81
67804;SHT31;54603;45.638;11.714;2023-05-31T00:52:01;24.75;52.81
67804;SHT31;54603;45.638;11.714;2023-05-31T00:54:28;24.75;52.78
67804;SHT31;54603;45.638;11.714;2023-05-31T00:56:54;24.73;52.65
67804;SHT31;54603;45.638;11.714;2023-05-31T00:59:20;24.73;52.52
67804;SHT31;54603;45.638;11.714;2023-05-31T01:01:46;24.72;52.53
67804;SHT31;54603;45.638;11.714;2023-05-31T01:04:12;24.71;52.53
67804;SHT31;54603;45.638;11.714;2023-05-31T01:06:39;24.71;52.60
67804;SHT31;54603;45.638;11.714;2023-05-31T01:09:05;24.70;52.66
67804;SHT31;54603;45.638;11.714;2023-05-31T01:11:41;24.70;52.70
67804;SHT31;54603;45.638;11.714;2023-05-31T01:17:03;24.70;52.57
67804;SHT31;54603;45.638;11.714;2023-05-31T01:20:04;24.70;52.53
67804;SHT31;54603;45.638;11.714;2023-05-31T01:28:20;24.69;52.64
67804;SHT31;54603;45.638;11.714;2023-05-31T01:30:48;24.69;52.60
67804;SHT31;54603;45.638;11.714;2023-05-31T01:33:16;24.69;52.60
67804;SHT31;54603;45.638;11.714;2023-05-31T01:35:44;24.68;52.60
67804;SHT31;54603;45.638;11.714;2023-05-31T01:38:10;24.69;52.57
67804;SHT31;54603;45.638;11.714;2023-05-31T01:40:36;24.68;52.51
67804;SHT31;54603;45.638;11.714;2023-05-31T01:43:03;24.67;52.49
67804;SHT31;54603;45.638;11.714;2023-05-31T01:45:31;24.67;52.44
67804;SHT31;54603;45.638;11.714;2023-05-31T01:48:02;24.66;52.38
67804;SHT31;54603;45.638;11.714;2023-05-31T01:50:35;24.66;52.41
67804;SHT31;54603;45.638;11.714;2023-05-31T01:53:04;24.66;52.42
67804;SHT31;54603;45.638;11.714;2023-05-31T01:55:31;24.66;52.42
67804;SHT31;54603;45.638;11.714;2023-05-31T01:57:57;24.66;52.41
67804;SHT31;54603;45.638;11.714;2023-05-31T02:00:25;24.66;52.38
67804;SHT31;54603;45.638;11.714;2023-05-31T02:02:51;24.65;52.33
67804;SHT31;54603;45.638;11.714;2023-05-31T02:05:20;24.65;52.32
67804;SHT31;54603;45.638;11.714;2023-05-31T02:07:46;24.65;52.36
67804;SHT31;54603;45.638;11.714;2023-05-31T02:10:13;24.65;52.29
67804;SHT31;54603;45.638;11.714;2023-05-31T02:12:41;24.64;52.18
67804;SHT31;54603;45.638;11.714;2023-05-31T02:15:07;24.65;52.14
67804;SHT31;54603;45.638;11.714;2023-05-31T02:17:36;24.64;52.18
67804;SHT31;54603;45.638;11.714;2023-05-31T02:20:09;24.64;52.16
67804;SHT31;54603;45.638;11.714;2023-05-31T02:22:43;24.63;52.14
67804;SHT31;54603;45.638;11.714;2023-05-31T02:25:12;24.63;52.08
67804;SHT31;54603;45.638;11.714;2023-05-31T02:27:40;24.62;52.03
67804;SHT31;54603;45.638;11.714;2023-05-31T02:30:08;24.62;51.98
67804;SHT31;54603;45.638;11.714;2023-05-31T02:32:36;24.61;52.00
67804;SHT31;54603;45.638;11.714;2023-05-31T02:35:03;24.62;51.98
67804;SHT31;54603;45.638;11.714;2023-05-31T02:37:31;24.61;51.99
67804;SHT31;54603;45.638;11.714;2023-05-31T02:39:58;24.61;52.11
67804;SHT31;54603;45.638;11.714;2023-05-31T02:42:24;24.61;52.11
67804;SHT31;54603;45.638;11.714;2023-05-31T02:44:50;24.60;52.13
67804;SHT31;54603;45.638;11.714;2023-05-31T02:47:17;24.59;52.07
67804;SHT31;54603;45.638;11.714;2023-05-31T02:49:44;24.60;52.07
67804;SHT31;54603;45.638;11.714;2023-05-31T02:52:10;24.59;52.11
67804;SHT31;54603;45.638;11.714;2023-05-31T02:54:36;24.59;51.98
67804;SHT31;54603;45.638;11.714;2023-05-31T02:57:02;24.60;51.80
67804;SHT31;54603;45.638;11.714;2023-05-31T02:59:29;24.58;51.78
67804;SHT31;54603;45.638;11.714;2023-05-31T03:01:55;24.57;51.74
67804;SHT31;54603;45.638;11.714;2023-05-31T03:04:21;24.57;51.66
67804;SHT31;54603;45.638;11.714;2023-05-31T03:06:48;24.56;51.57
67804;SHT31;54603;45.638;11.714;2023-05-31T03:09:15;24.55;51.59
67804;SHT31;54603;45.638;11.714;2023-05-31T03:11:43;24.54;51.49
67804;SHT31;54603;45.638;11.714;2023-05-31T03:14:10;24.53;51.50
67804;SHT31;54603;45.638;11.714;2023-05-31T03:16:37;24.53;51.54
67804;SHT31;54603;45.638;11.714;2023-05-31T03:19:03;24.52;51.67
67804;SHT31;54603;45.638;11.714;2023-05-31T03:21:30;24.52;51.86
67804;SHT31;54603;45.638;11.714;2023-05-31T03:23:56;24.52;51.95
67804;SHT31;54603;45.638;11.714;2023-05-31T03:26:22;24.51;51.97
67804;SHT31;54603;45.638;11.714;2023-05-31T03:28:48;24.52;51.97
67804;SHT31;54603;45.638;11.714;2023-05-31T03:31:14;24.51;51.99
67804;SHT31;54603;45.638;11.714;2023-05-31T03:33:40;24.51;52.08
67804;SHT31;54603;45.638;11.714;2023-05-31T03:36:06;24.51;52.12
67804;SHT31;54603;45.638;11.714;2023-05-31T03:38:33;24.51;52.16
67804;SHT31;54603;45.638;11.714;2023-05-31T03:40:59;24.52;52.20
67804;SHT31;54603;45.638;11.714;2023-05-31T03:43:25;24.51;52.19
67804;SHT31;54603;45.638;11.714;2023-05-31T03:45:51;24.52;52.20
67804;SHT31;54603;45.638;11.714;2023-05-31T03:48:17;24.52;52.21
67804;SHT31;54603;45.638;11.714;2023-05-31T03:50:43;24.52;52.30
67804;SHT31;54603;45.638;11.714;2023-05-31T03:53:10;24.51;52.32
67804;SHT31;54603;45.638;11.714;2023-05-31T03:55:36;24.51;52.36
67804;SHT31;54603;45.638;11.714;2023-05-31T03:58:02;24.51;52.41
67804;SHT31;54603;45.638;11.714;2023-05-31T04:00:28;24.52;52.46
67804;SHT31;54603;45.638;11.714;2023-05-31T04:02:55;24.52;52.52
67804;SHT31;54603;45.638;11.714;2023-05-31T04:05:21;24.52;52.50
67804;SHT31;54603;45.638;11.714;2023-05-31T04:07:47;24.52;52.50
67804;SHT31;54603;45.638;11.714;2023-05-31T04:10:13;24.52;52.50
67804;SHT31;54603;45.638;11.714;2023-05-31T04:12:39;24.53;52.52
67804;SHT31;54603;45.638;11.714;2023-05-31T04:15:05;24.53;52.60
67804;SHT31;54603;45.638;11.714;2023-05-31T04:17:32;24.54;52.72
67804;SHT31;54603;45.638;11.714;2023-05-31T04:19:58;24.53;52.78
67804;SHT31;54603;45.638;11.714;2023-05-31T04:22:24;24.53;52.89
67804;SHT31;54603;45.638;11.714;2023-05-31T04:24:50;24.54;52.90
67804;SHT31;54603;45.638;11.714;2023-05-31T04:27:16;24.54;52.90
67804;SHT31;54603;45.638;11.714;2023-05-31T04:29:45;24.55;52.93
67804;SHT31;54603;45.638;11.714;2023-05-31T04:32:12;24.55;52.95
67804;SHT31;54603;45.638;11.714;2023-05-31T04:34:40;24.57;52.82
67804;SHT31;54603;45.638;11.714;2023-05-31T04:37:07;24.57;52.76
67804;SHT31;54603;45.638;11.714;2023-05-31T04:39:34;24.57;52.74
67804;SHT31;54603;45.638;11.714;2023-05-31T04:42:01;24.57;52.80
67804;SHT31;54603;45.638;11.714;2023-05-31T04:44:28;24.57;52.73
67804;SHT31;54603;45.638;11.714;2023-05-31T04:46:55;24.58;52.73
67804;SHT31;54603;45.638;11.714;2023-05-31T04:49:22;24.58;52.79
67804;SHT31;54603;45.638;11.714;2023-05-31T04:51:49;24.58;52.88
67804;SHT31;54603;45.638;11.714;2023-05-31T04:54:35;24.60;52.89
67804;SHT31;54603;45.638;11.714;2023-05-31T04:57:01;24.60;52.74
67804;SHT31;54603;45.638;11.714;2023-05-31T04:59:28;24.60;52.69
67804;SHT31;54603;45.638;11.714;2023-05-31T05:01:54;24.61;52.60
67804;SHT31;54603;45.638;11.714;2023-05-31T05:04:20;24.61;52.52
67804;SHT31;54603;45.638;11.714;2023-05-31T05:06:46;24.60;52.50
67804;SHT31;54603;45.638;11.714;2023-05-31T05:09:13;24.60;52.65
67804;SHT31;54603;45.638;11.714;2023-05-31T05:11:39;24.59;52.60
67804;SHT31;54603;45.638;11.714;2023-05-31T05:14:05;24.60;52.48
67804;SHT31;54603;45.638;11.714;2023-05-31T05:16:31;24.60;52.33
67804;SHT31;54603;45.638;11.714;2023-05-31T05:18:57;24.59;52.34
67804;SHT31;54603;45.638;11.714;2023-05-31T05:21:23;24.59;52.60
67804;SHT31;54603;45.638;11.714;2023-05-31T05:23:49;24.58;52.91
67804;SHT31;54603;45.638;11.714;2023-05-31T05:26:16;24.58;53.06
67804;SHT31;54603;45.638;11.714;2023-05-31T05:28:42;24.58;53.03
67804;SHT31;54603;45.638;11.714;2023-05-31T05:31:08;24.59;52.91
67804;SHT31;54603;45.638;11.714;2023-05-31T05:33:34;24.60;52.82
67804;SHT31;54603;45.638;11.714;2023-05-31T05:36:00;24.61;52.67
67804;SHT31;54603;45.638;11.714;2023-05-31T05:38:27;24.60;52.47
67804;SHT31;54603;45.638;11.714;2023-05-31T05:40:54;24.60;52.33
67804;SHT31;54603;45.638;11.714;2023-05-31T05:43:20;24.60;52.35
67804;SHT31;54603;45.638;11.714;2023-05-31T05:45:47;24.59;52.28
67804;SHT31;54603;45.638;11.714;2023-05-31T05:48:13;24.59;52.28
67804;SHT31;54603;45.638;11.714;2023-05-31T05:50:40;24.59;52.24
67804;SHT31;54603;45.638;11.714;2023-05-31T05:53:06;24.58;52.34
67804;SHT31;54603;45.638;11.714;2023-05-31T05:55:33;24.59;52.42
67804;SHT31;54603;45.638;11.714;2023-05-31T05:58:00;24.60;52.51
67804;SHT31;54603;45.638;11.714;2023-05-31T06:00:26;24.60;52.50
67804;SHT31;54603;45.638;11.714;2023-05-31T06:02:53;24.62;52.60
67804;SHT31;54603;45.638;11.714;2023-05-31T06:05:19;24.62;52.66
67804;SHT31;54603;45.638;11.714;2023-05-31T06:07:51;24.63;52.76
67804;SHT31;54603;45.638;11.714;2023-05-31T06:10:18;24.63;52.71
67804;SHT31;54603;45.638;11.714;2023-05-31T06:12:44;24.65;52.61
67804;SHT31;54603;45.638;11.714;2023-05-31T06:15:10;24.65;52.64
67804;SHT31;54603;45.638;11.714;2023-05-31T06:17:36;24.65;52.61
67804;SHT31;54603;45.638;11.714;2023-05-31T06:20:03;24.66;52.65
67804;SHT31;54603;45.638;11.714;2023-05-31T06:22:34;24.67;52.60
67804;SHT31;54603;45.638;11.714;2023-05-31T06:25:00;24.68;52.60
67804;SHT31;54603;45.638;11.714;2023-05-31T06:27:26;24.69;52.59
67804;SHT31;54603;45.638;11.714;2023-05-31T06:29:52;24.69;52.59
67804;SHT31;54603;45.638;11.714;2023-05-31T06:32:26;24.70;52.65
67804;SHT31;54603;45.638;11.714;2023-05-31T06:34:55;24.70;52.76
67804;SHT31;54603;45.638;11.714;2023-05-31T06:37:23;24.70;52.83
67804;SHT31;54603;45.638;11.714;2023-05-31T06:39:49;24.73;52.96
67804;SHT31;54603;45.638;11.714;2023-05-31T06:42:15;24.73;53.03
67804;SHT31;54603;45.638;11.714;2023-05-31T06:44:44;24.75;53.08
67804;SHT31;54603;45.638;11.714;2023-05-31T06:47:10;24.76;53.12
67804;SHT31;54603;45.638;11.714;2023-05-31T06:49:36;24.77;52.91
67804;SHT31;54603;45.638;11.714;2023-05-31T06:52:02;24.78;52.81
67804;SHT31;54603;45.638;11.714;2023-05-31T06:54:28;24.80;52.72
67804;SHT31;54603;45.638;11.714;2023-05-31T06:56:54;24.81;52.55
67804;SHT31;54603;45.638;11.714;2023-05-31T06:59:20;24.83;52.55
67804;SHT31;54603;45.638;11.714;2023-05-31T07:01:46;24.82;52.59
67804;SHT31;54603;45.638;11.714;2023-05-31T07:04:13;24.83;52.60
67804;SHT31;54603;45.638;11.714;2023-05-31T07:06:39;24.84;52.65
67804;SHT31;54603;45.638;11.714;2023-05-31T07:09:05;24.85;52.70
67804;SHT31;54603;45.638;11.714;2023-05-31T07:11:31;24.86;52.70
67804;SHT31;54603;45.638;11.714;2023-05-31T07:13:57;24.86;52.73
67804;SHT31;54603;45.638;11.714;2023-05-31T07:16:29;24.87;52.63
67804;SHT31;54603;45.638;11.714;2023-05-31T07:18:55;24.89;52.62
67804;SHT31;54603;45.638;11.714;2023-05-31T07:21:21;24.90;52.61
67804;SHT31;54603;45.638;11.714;2023-05-31T07:23:48;24.90;52.63
67804;SHT31;54603;45.638;11.714;2023-05-31T07:26:14;24.92;52.58
67804;SHT31;54603;45.638;11.714;2023-05-31T07:28:44;24.92;52.54
67804;SHT31;54603;45.638;11.714;2023-05-31T07:31:11;24.94;52.53
67804;SHT31;54603;45.638;11.714;2023-05-31T07:33:41;24.94;52.54
67804;SHT31;54603;45.638;11.714;2023-05-31T07:36:07;24.95;52.59
67804;SHT31;54603;45.638;11.714;2023-05-31T07:38:34;24.96;52.58
67804;SHT31;54603;45.638;11.714;2023-05-31T07:41:00;24.97;52.49
67804;SHT31;54603;45.638;11.714;2023-05-31T07:43:26;24.98;52.51
67804;SHT31;54603;45.638;11.714;2023-05-31T07:45:55;25.00;52.55
67804;SHT31;54603;45.638;11.714;2023-05-31T07:48:22;25.00;52.40
67804;SHT31;54603;45.638;11.714;2023-05-31T07:50:49;25.01;52.26
67804;SHT31;54603;45.638;11.714;2023-05-31T07:53:16;25.02;52.18
67804;SHT31;54603;45.638;11.714;2023-05-31T07:55:42;25.03;52.18
67804;SHT31;54603;45.638;11.714;2023-05-31T07:58:09;25.02;52.23
67804;SHT31;54603;45.638;11.714;2023-05-31T08:00:39;25.02;52.35
67804;SHT31;54603;45.638;11.714;2023-05-31T08:03:05;25.03;52.49
67804;SHT31;54603;45.638;11.714;2023-05-31T08:05:31;25.02;52.25
67804;SHT31;54603;45.638;11.714;2023-05-31T08:07:57;25.04;52.03
67804;SHT31;54603;45.638;11.714;2023-05-31T08:10:24;25.05;51.96
67804;SHT31;54603;45.638;11.714;2023-05-31T08:12:50;25.07;52.01
67804;SHT31;54603;45.638;11.714;2023-05-31T08:15:16;25.09;51.99
67804;SHT31;54603;45.638;11.714;2023-05-31T08:17:42;25.11;51.94
67804;SHT31;54603;45.638;11.714;2023-05-31T08:20:09;25.12;52.11
67804;SHT31;54603;45.638;11.714;2023-05-31T08:22:38;25.13;52.13
67804;SHT31;54603;45.638;11.714;2023-05-31T08:25:07;25.13;52.06
67804;SHT31;54603;45.638;11.714;2023-05-31T08:27:34;25.16;51.62
67804;SHT31;54603;45.638;11.714;2023-05-31T08:30:00;25.16;51.55
67804;SHT31;54603;45.638;11.714;2023-05-31T08:32:25;25.17;51.80
67804;SHT31;54603;45.638;11.714;2023-05-31T08:34:51;25.17;51.79
67804;SHT31;54603;45.638;11.714;2023-05-31T08:37:17;25.18;51.45
67804;SHT31;54603;45.638;11.714;2023-05-31T08:39:45;25.19;51.30
67804;SHT31;54603;45.638;11.714;2023-05-31T08:42:13;25.21;50.99
67804;SHT31;54603;45.638;11.714;2023-05-31T08:44:45;25.22;51.07
67804;SHT31;54603;45.638;11.714;2023-05-31T08:47:17;25.23;51.29
67804;SHT31;54603;45.638;11.714;2023-05-31T08:49:54;25.23;51.07
67804;SHT31;54603;45.638;11.714;2023-05-31T08:52:21;25.23;51.24
67804;SHT31;54603;45.638;11.714;2023-05-31T08:54:48;25.25;51.37
67804;SHT31;54603;45.638;11.714;2023-05-31T08:57:14;25.25;51.03
67804;SHT31;54603;45.638;11.714;2023-05-31T08:59:43;25.25;50.93
67804;SHT31;54603;45.638;11.714;2023-05-31T09:02:09;25.28;50.72
67804;SHT31;54603;45.638;11.714;2023-05-31T09:04:38;25.28;50.60
67804;SHT31;54603;45.638;11.714;2023-05-31T09:07:06;25.28;50.71
67804;SHT31;54603;45.638;11.714;2023-05-31T09:09:32;25.30;50.13
67804;SHT31;54603;45.638;11.714;2023-05-31T09:11:58;25.32;50.16
67804;SHT31;54603;45.638;11.714;2023-05-31T09:14:25;25.32;50.17
67804;SHT31;54603;45.638;11.714;2023-05-31T09:16:52;25.34;50.12
67804;SHT31;54603;45.638;11.714;2023-05-31T09:19:17;25.35;49.95
67804;SHT31;54603;45.638;11.714;2023-05-31T09:21:44;25.36;49.98
67804;SHT31;54603;45.638;11.714;2023-05-31T09:24:12;25.36;49.57
67804;SHT31;54603;45.638;11.714;2023-05-31T09:26:46;25.39;49.82
67804;SHT31;54603;45.638;11.714;2023-05-31T09:29:17;25.40;49.92
67804;SHT31;54603;45.638;11.714;2023-05-31T09:31:46;25.40;49.31
67804;SHT31;54603;45.638;11.714;2023-05-31T09:34:25;25.43;49.10
67804;SHT31;54603;45.638;11.714;2023-05-31T09:36:59;25.43;49.38
67804;SHT31;54603;45.638;11.714;2023-05-31T09:39:25;25.43;49.61
67804;SHT31;54603;45.638;11.714;2023-05-31T09:41:52;25.43;49.64
67804;SHT31;54603;45.638;11.714;2023-05-31T09:44:18;25.45;49.69
67804;SHT31;54603;45.638;11.714;2023-05-31T09:46:45;25.46;49.58
67804;SHT31;54603;45.638;11.714;2023-05-31T09:49:11;25.47;49.61
67804;SHT31;54603;45.638;11.714;2023-05-31T09:51:38;25.48;49.93
67804;SHT31;54603;45.638;11.714;2023-05-31T09:54:14;25.49;49.89
67804;SHT31;54603;45.638;11.714;2023-05-31T09:56:42;25.48;50.02
67804;SHT31;54603;45.638;11.714;2023-05-31T09:59:09;25.48;50.06
67804;SHT31;54603;45.638;11.714;2023-05-31T10:01:36;25.48;50.14
67804;SHT31;54603;45.638;11.714;2023-05-31T10:04:02;25.48;49.76
67804;SHT31;54603;45.638;11.714;2023-05-31T10:06:31;25.49;49.65
67804;SHT31;54603;45.638;11.714;2023-05-31T10:09:01;25.49;49.49
67804;SHT31;54603;45.638;11.714;2023-05-31T10:11:32;25.50;49.24
67804;SHT31;54603;45.638;11.714;2023-05-31T10:14:03;25.50;49.01
67804;SHT31;54603;45.638;11.714;2023-05-31T10:16:40;25.51;48.20
67804;SHT31;54603;45.638;11.714;2023-05-31T10:19:15;25.53;48.42
67804;SHT31;54603;45.638;11.714;2023-05-31T10:22:03;25.55;48.25
67804;SHT31;54603;45.638;11.714;2023-05-31T10:24:31;25.56;48.26
67804;SHT31;54603;45.638;11.714;2023-05-31T10:27:25;25.56;48.25
67804;SHT31;54603;45.638;11.714;2023-05-31T10:29:56;25.56;47.92
67804;SHT31;54603;45.638;11.714;2023-05-31T10:32:33;25.58;46.40
67804;SHT31;54603;45.638;11.714;2023-05-31T10:35:11;25.60;46.37
67804;SHT31;54603;45.638;11.714;2023-05-31T10:37:40;25.61;45.99
67804;SHT31;54603;45.638;11.714;2023-05-31T10:40:22;25.63;46.28
67804;SHT31;54603;45.638;11.714;2023-05-31T10:46:16;25.65;46.94
67804;SHT31;54603;45.638;11.714;2023-05-31T10:48:55;25.65;47.02
67804;SHT31;54603;45.638;11.714;2023-05-31T10:51:39;25.65;46.75
67804;SHT31;54603;45.638;11.714;2023-05-31T10:54:20;25.67;46.95
67804;SHT31;54603;45.638;11.714;2023-05-31T10:56:52;25.66;46.50
67804;SHT31;54603;45.638;11.714;2023-05-31T10:59:23;25.65;45.32
67804;SHT31;54603;45.638;11.714;2023-05-31T11:01:50;25.66;45.97
67804;SHT31;54603;45.638;11.714;2023-05-31T11:07:09;25.67;46.36
67804;SHT31;54603;45.638;11.714;2023-05-31T11:09:57;25.65;45.41
67804;SHT31;54603;45.638;11.714;2023-05-31T11:12:34;25.66;45.64
67804;SHT31;54603;45.638;11.714;2023-05-31T11:15:11;25.67;45.95
67804;SHT31;54603;45.638;11.714;2023-05-31T11:17:40;25.67;45.98
67804;SHT31;54603;45.638;11.714;2023-05-31T11:20:17;25.67;45.67
67804;SHT31;54603;45.638;11.714;2023-05-31T11:22:44;25.67;45.49
67804;SHT31;54603;45.638;11.714;2023-05-31T11:25:18;25.70;45.86
67804;SHT31;54603;45.638;11.714;2023-05-31T11:27:48;25.70;46.24
67804;SHT31;54603;45.638;11.714;2023-05-31T11:30:35;25.70;45.95
67804;SHT31;54603;45.638;11.714;2023-05-31T11:33:02;25.70;45.40
67804;SHT31;54603;45.638;11.714;2023-05-31T11:35:40;25.71;45.19
67804;SHT31;54603;45.638;11.714;2023-05-31T11:38:06;25.71;44.60
67804;SHT31;54603;45.638;11.714;2023-05-31T11:40:33;25.75;43.62
67804;SHT31;54603;45.638;11.714;2023-05-31T11:43:04;25.78;43.22
67804;SHT31;54603;45.638;11.714;2023-05-31T11:45:33;25.78;44.24
67804;SHT31;54603;45.638;11.714;2023-05-31T11:48:11;25.78;44.72
67804;SHT31;54603;45.638;11.714;2023-05-31T11:51:04;25.77;44.95
67804;SHT31;54603;45.638;11.714;2023-05-31T11:53:31;25.76;44.87
67804;SHT31;54603;45.638;11.714;2023-05-31T11:55:57;25.76;44.65
67804;SHT31;54603;45.638;11.714;2023-05-31T11:58:25;25.77;44.56
67804;SHT31;54603;45.638;11.714;2023-05-31T12:00:51;25.78;43.81
67804;SHT31;54603;45.638;11.714;2023-05-31T12:03:24;25.83;43.08
67804;SHT31;54603;45.638;11.714;2023-05-31T12:05:50;25.86;43.57
67804;SHT31;54603;45.638;11.714;2023-05-31T12:08:22;25.86;43.29
67804;SHT31;54603;45.638;11.714;2023-05-31T12:10:48;25.89;43.17
67804;SHT31;54603;45.638;11.714;2023-05-31T12:13:15;25.92;43.15
67804;SHT31;54603;45.638;11.714;2023-05-31T12:15:49;25.96;42.40
67804;SHT31;54603;45.638;11.714;2023-05-31T12:18:22;25.99;42.40
67804;SHT31;54603;45.638;11.714;2023-05-31T12:20:48;26.01;42.53
67804;SHT31;54603;45.638;11.714;2023-05-31T12:23:15;26.01;43.23
67804;SHT31;54603;45.638;11.714;2023-05-31T12:25:44;26.02;43.32
67804;SHT31;54603;45.638;11.714;2023-05-31T12:28:12;26.01;43.52
67804;SHT31;54603;45.638;11.714;2023-05-31T12:30:46;26.01;43.89
67804;SHT31;54603;45.638;11.714;2023-05-31T12:33:13;26.00;43.93
67804;SHT31;54603;45.638;11.714;2023-05-31T12:35:39;26.01;43.94
67804;SHT31;54603;45.638;11.714;2023-05-31T12:38:07;26.01;44.07
67804;SHT31;54603;45.638;11.714;2023-05-31T12:40:37;26.01;43.82
67804;SHT31;54603;45.638;11.714;2023-05-31T12:43:07;26.01;43.61
67804;SHT31;54603;45.638;11.714;2023-05-31T12:45:39;26.02;43.92
67804;SHT31;54603;45.638;11.714;2023-05-31T12:48:07;26.03;43.77
67804;SHT31;54603;45.638;11.714;2023-05-31T12:50:35;26.06;43.49
67804;SHT31;54603;45.638;11.714;2023-05-31T12:53:01;26.09;43.34
67804;SHT31;54603;45.638;11.714;2023-05-31T12:55:32;26.11;43.87
67804;SHT31;54603;45.638;11.714;2023-05-31T12:57:57;26.10;44.10
67804;SHT31;54603;45.638;11.714;2023-05-31T13:00:25;26.09;44.24
67804;SHT31;54603;45.638;11.714;2023-05-31T13:02:51;26.08;44.28
67804;SHT31;54603;45.638;11.714;2023-05-31T13:05:19;26.08;43.94
67804;SHT31;54603;45.638;11.714;2023-05-31T13:07:44;26.10;43.98
67804;SHT31;54603;45.638;11.714;2023-05-31T13:10:12;26.11;44.19
67804;SHT31;54603;45.638;11.714;2023-05-31T13:12:39;26.10;44.09
67804;SHT31;54603;45.638;11.714;2023-05-31T13:15:05;26.09;44.27
67804;SHT31;54603;45.638;11.714;2023-05-31T13:17:32;26.10;44.10
67804;SHT31;54603;45.638;11.714;2023-05-31T13:20:00;26.11;44.06
67804;SHT31;54603;45.638;11.714;2023-05-31T13:22:26;26.12;44.37
67804;SHT31;54603;45.638;11.714;2023-05-31T13:24:52;26.12;44.41
67804;SHT31;54603;45.638;11.714;2023-05-31T13:27:18;26.11;44.64
67804;SHT31;54603;45.638;11.714;2023-05-31T13:29:44;26.10;44.80
67804;SHT31;54603;45.638;11.714;2023-05-31T13:32:10;26.09;44.88
67804;SHT31;54603;45.638;11.714;2023-05-31T13:34:37;26.08;44.60
67804;SHT31;54603;45.638;11.714;2023-05-31T13:37:03;26.09;44.83
67804;SHT31;54603;45.638;11.714;2023-05-31T13:39:30;26.09;44.94
67804;SHT31;54603;45.638;11.714;2023-05-31T13:41:58;26.08;44.87
67804;SHT31;54603;45.638;11.714;2023-05-31T13:44:26;26.10;44.16
67804;SHT31;54603;45.638;11.714;2023-05-31T13:46:52;26.13;44.38
67804;SHT31;54603;45.638;11.714;2023-05-31T13:49:19;26.13;44.54
67804;SHT31;54603;45.638;11.714;2023-05-31T13:51:45;26.14;44.64
67804;SHT31;54603;45.638;11.714;2023-05-31T13:54:13;26.14;44.56
67804;SHT31;54603;45.638;11.714;2023-05-31T13:56:44;26.15;44.68
67804;SHT31;54603;45.638;11.714;2023-05-31T13:59:10;26.16;44.34
67804;SHT31;54603;45.638;11.714;2023-05-31T14:01:37;26.17;44.54
67804;SHT31;54603;45.638;11.714;2023-05-31T14:04:03;26.18;44.61
67804;SHT31;54603;45.638;11.714;2023-05-31T14:06:30;26.18;44.71
67804;SHT31;54603;45.638;11.714;2023-05-31T14:08:57;26.17;44.59
67804;SHT31;54603;45.638;11.714;2023-05-31T14:11:24;26.17;44.88
67804;SHT31;54603;45.638;11.714;2023-05-31T14:13:52;26.15;44.43
67804;SHT31;54603;45.638;11.714;2023-05-31T14:16:17;26.13;44.03
67804;SHT31;54603;45.638;11.714;2023-05-31T14:18:44;26.14;44.32
67804;SHT31;54603;45.638;11.714;2023-05-31T14:21:10;26.14;44.47
67804;SHT31;54603;45.638;11.714;2023-05-31T14:23:35;26.14;44.47
67804;SHT31;54603;45.638;11.714;2023-05-31T14:26:01;26.13;44.51
67804;SHT31;54603;45.638;11.714;2023-05-31T14:28:27;26.12;44.45
67804;SHT31;54603;45.638;11.714;2023-05-31T14:30:53;26.12;44.02
67804;SHT31;54603;45.638;11.714;2023-05-31T14:33:20;26.14;43.84
67804;SHT31;54603;45.638;11.714;2023-05-31T14:35:49;26.12;43.82
67804;SHT31;54603;45.638;11.714;2023-05-31T14:38:15;26.11;43.87
67804;SHT31;54603;45.638;11.714;2023-05-31T14:40:41;26.11;43.78
67804;SHT31;54603;45.638;11.714;2023-05-31T14:43:07;26.10;43.71
67804;SHT31;54603;45.638;11.714;2023-05-31T14:45:33;26.14;43.90
67804;SHT31;54603;45.638;11.714;2023-05-31T14:47:58;26.14;44.04
67804;SHT31;54603;45.638;11.714;2023-05-31T14:50:25;26.14;43.88
67804;SHT31;54603;45.638;11.714;2023-05-31T14:52:51;26.12;43.80
67804;SHT31;54603;45.638;11.714;2023-05-31T14:55:18;26.13;44.46
67804;SHT31;54603;45.638;11.714;2023-05-31T14:57:44;26.13;45.15
67804;SHT31;54603;45.638;11.714;2023-05-31T15:00:10;26.13;46.35
67804;SHT31;54603;45.638;11.714;2023-05-31T15:02:37;26.11;46.39
67804;SHT31;54603;45.638;11.714;2023-05-31T15:05:03;26.10;45.85
67804;SHT31;54603;45.638;11.714;2023-05-31T15:07:30;26.08;44.93
67804;SHT31;54603;45.638;11.714;2023-05-31T15:09:56;26.07;44.81
